sensor_id;sensor_type;location;lat;lon;timestamp;P1;durP1;ratioP1;P2;durP2;ratioP2
75914;SDS011;64593;51.050;13.780;2023-03-14T07:02:29;4.80;;;0.68;;
75914;SDS011;64593;51.050;13.780;2023-03-14T07:07:52;5.47;;;0.90;;
75914;SDS011;64593;51.050;13.780;2023-03-14T07:12:57;4.68;;;1.67;;
75914;SDS011;64593;51.050;13.780;2023-03-14T07:18:01;5.82;;;1.83;;
75914;SDS011;64593;51.050;13.780;2023-03-14T07:23:05;4.45;;;1.10;;
75914;SDS011;64593;51.050;13.780;2023-03-14T07:28:17;4.13;;;1.17;;
75914;SDS011;64593;51.050;13.780;2023-03-14T07:33:23;4.40;;;0.75;;
75914;SDS011;64593;51.050;13.780;2023-03-14T07:38:27;2.65;;;0.47;;
75914;SDS011;64593;51.050;13.780;2023-03-14T07:43:56;4.22;;;0.73;;
75914;SDS011;64593;51.050;13.780;2023-03-14T07:48:59;4.68;;;1.48;;
75914;SDS011;64593;51.050;13.780;2023-03-14T07:54:01;3.28;;;0.75;;
75914;SDS011;64593;51.050;13.780;2023-03-14T07:59:06;2.60;;;0.63;;
75914;SDS011;64593;51.050;13.780;2023-03-14T08:04:11;2.35;;;0.63;;
75914;SDS011;64593;51.050;13.780;2023-03-14T08:09:13;5.75;;;0.88;;
75914;SDS011;64593;51.050;13.780;2023-03-14T08:14:21;3.95;;;1.00;;
75914;SDS011;64593;51.050;13.780;2023-03-14T08:19:25;3.67;;;0.68;;
75914;SDS011;64593;51.050;13.780;2023-03-14T08:24:31;6.05;;;0.65;;
75914;SDS011;64593;51.050;13.780;2023-03-14T08:29:32;4.97;;;0.50;;
75914;SDS011;64593;51.050;13.780;2023-03-14T08:34:34;2.50;;;0.57;;
75914;SDS011;64593;51.050;13.780;2023-03-14T08:39:36;3.10;;;0.73;;
75914;SDS011;64593;51.050;13.780;2023-03-14T08:44:38;1.23;;;0.40;;
75914;SDS011;64593;51.050;13.780;2023-03-14T08:49:43;3.28;;;0.70;;
75914;SDS011;64593;51.050;13.780;2023-03-14T08:54:45;1.20;;;0.28;;
75914;SDS011;64593;51.050;13.780;2023-03-14T08:59:50;3.60;;;0.40;;
75914;SDS011;64593;51.050;13.780;2023-03-14T09:04:56;1.67;;;0.30;;
75914;SDS011;64593;51.050;13.780;2023-03-14T09:10:00;1.33;;;0.50;;
75914;SDS011;64593;51.050;13.780;2023-03-14T09:15:02;5.15;;;0.60;;
75914;SDS011;64593;51.050;13.780;2023-03-14T09:20:08;2.17;;;0.70;;
75914;SDS011;64593;51.050;13.780;2023-03-14T09:25:10;6.65;;;0.90;;
75914;SDS011;64593;51.050;13.780;2023-03-14T09:30:14;1.13;;;0.50;;
75914;SDS011;64593;51.050;13.780;2023-03-14T09:35:16;3.30;;;0.80;;
75914;SDS011;64593;51.050;13.780;2023-03-14T09:40:19;3.40;;;0.60;;
75914;SDS011;64593;51.050;13.780;2023-03-14T09:45:35;1.42;;;0.30;;
75914;SDS011;64593;51.050;13.780;2023-03-14T09:50:40;1.33;;;0.40;;
75914;SDS011;64593;51.050;13.780;2023-03-14T09:55:49;1.20;;;0.40;;
75914;SDS011;64593;51.050;13.780;2023-03-14T10:00:56;2.05;;;0.30;;
75914;SDS011;64593;51.050;13.780;2023-03-14T10:05:59;0.93;;;0.40;;
75914;SDS011;64593;51.050;13.780;2023-03-14T10:11:27;2.20;;;0.55;;
75914;SDS011;64593;51.050;13.780;2023-03-14T10:16:44;0.90;;;0.25;;
75914;SDS011;64593;51.050;13.780;2023-03-14T10:27:00;3.55;;;0.52;;
75914;SDS011;64593;51.050;13.780;2023-03-14T10:32:10;0.93;;;0.30;;
75914;SDS011;64593;51.050;13.780;2023-03-14T10:37:26;1.30;;;0.20;;
75914;SDS011;64593;51.050;13.780;2023-03-14T10:42:38;0.90;;;0.40;;
75914;SDS011;64593;51.050;13.780;2023-03-14T10:47:48;2.15;;;0.50;;
75914;SDS011;64593;51.050;13.780;2023-03-14T10:52:51;2.20;;;1.10;;
75914;SDS011;64593;51.050;13.780;2023-03-14T10:58:03;1.20;;;0.30;;
75914;SDS011;64593;51.050;13.780;2023-03-14T11:03:10;1.10;;;0.20;;
75914;SDS011;64593;51.050;13.780;2023-03-14T11:08:25;2.03;;;0.47;;
75914;SDS011;64593;51.050;13.780;2023-03-14T11:24:23;1.63;;;0.40;;
75914;SDS011;64593;51.050;13.780;2023-03-14T11:29:41;0.85;;;0.32;;
75914;SDS011;64593;51.050;13.780;2023-03-14T11:34:50;1.05;;;0.30;;
75914;SDS011;64593;51.050;13.780;2023-03-14T11:40:04;2.63;;;0.30;;
75914;SDS011;64593;51.050;13.780;2023-03-14T11:45:20;0.95;;;0.30;;
75914;SDS011;64593;51.050;13.780;2023-03-14T11:50:27;0.63;;;0.20;;
75914;SDS011;64593;51.050;13.780;2023-03-14T11:55:31;2.97;;;0.40;;
75914;SDS011;64593;51.050;13.780;2023-03-14T12:01:00;1.08;;;0.20;;
75914;SDS011;64593;51.050;13.780;2023-03-14T12:16:40;1.08;;;0.40;;
75914;SDS011;64593;51.050;13.780;2023-03-14T12:22:43;0.57;;;0.10;;
75914;SDS011;64593;51.050;13.780;2023-03-14T12:38:29;0.70;;;0.28;;
75914;SDS011;64593;51.050;13.780;2023-03-14T12:49:32;4.68;;;0.40;;
75914;SDS011;64593;51.050;13.780;2023-03-14T12:54:36;0.63;;;0.10;;
75914;SDS011;64593;51.050;13.780;2023-03-14T13:05:31;0.38;;;0.10;;
75914;SDS011;64593;51.050;13.780;2023-03-14T13:10:59;0.75;;;0.20;;
75914;SDS011;64593;51.050;13.780;2023-03-14T13:22:03;0.93;;;0.32;;
75914;SDS011;64593;51.050;13.780;2023-03-14T13:27:19;0.20;;;0.10;;
75914;SDS011;64593;51.050;13.780;2023-03-14T13:32:27;0.30;;;0.10;;
75914;SDS011;64593;51.050;13.780;2023-03-14T13:37:29;0.38;;;0.10;;
75914;SDS011;64593;51.050;13.780;2023-03-14T13:43:01;0.85;;;0.20;;
75914;SDS011;64593;51.050;13.780;2023-03-14T13:48:26;1.40;;;0.25;;
75914;SDS011;64593;51.050;13.780;2023-03-14T13:53:29;0.75;;;0.30;;
75914;SDS011;64593;51.050;13.780;2023-03-14T13:58:57;0.70;;;0.28;;
75914;SDS011;64593;51.050;13.780;2023-03-14T14:04:24;0.95;;;0.20;;
75914;SDS011;64593;51.050;13.780;2023-03-14T14:09:29;0.55;;;0.30;;
75914;SDS011;64593;51.050;13.780;2023-03-14T14:19:41;0.77;;;0.20;;
75914;SDS011;64593;51.050;13.780;2023-03-14T14:29:56;1.17;;;0.65;;
75914;SDS011;64593;51.050;13.780;2023-03-14T14:34:59;0.45;;;0.13;;
75914;SDS011;64593;51.050;13.780;2023-03-14T14:40:16;1.10;;;0.57;;
75914;SDS011;64593;51.050;13.780;2023-03-14T14:45:26;0.55;;;0.20;;
75914;SDS011;64593;51.050;13.780;2023-03-14T14:50:32;0.75;;;0.20;;
75914;SDS011;64593;51.050;13.780;2023-03-14T14:56:07;1.02;;;0.30;;
75914;SDS011;64593;51.050;13.780;2023-03-14T15:01:18;1.95;;;0.47;;
75914;SDS011;64593;51.050;13.780;2023-03-14T15:06:47;1.65;;;0.38;;
75914;SDS011;64593;51.050;13.780;2023-03-14T15:11:51;0.40;;;0.13;;
75914;SDS011;64593;51.050;13.780;2023-03-14T15:16:53;0.20;;;0.10;;
75914;SDS011;64593;51.050;13.780;2023-03-14T15:21:54;0.38;;;0.20;;
75914;SDS011;64593;51.050;13.780;2023-03-14T15:27:02;0.47;;;0.20;;
75914;SDS011;64593;51.050;13.780;2023-03-14T15:32:29;0.98;;;0.30;;
75914;SDS011;64593;51.050;13.780;2023-03-14T15:37:34;1.50;;;0.20;;
75914;SDS011;64593;51.050;13.780;2023-03-14T15:42:40;2.38;;;0.38;;
75914;SDS011;64593;51.050;13.780;2023-03-14T15:47:42;0.50;;;0.20;;
75914;SDS011;64593;51.050;13.780;2023-03-14T15:53:09;0.50;;;0.25;;
75914;SDS011;64593;51.050;13.780;2023-03-14T15:58:16;0.57;;;0.20;;
75914;SDS011;64593;51.050;13.780;2023-03-14T16:03:47;1.08;;;0.20;;
75914;SDS011;64593;51.050;13.780;2023-03-14T16:08:50;1.13;;;0.30;;
75914;SDS011;64593;51.050;13.780;2023-03-14T16:14:17;3.15;;;0.47;;
75914;SDS011;64593;51.050;13.780;2023-03-14T16:19:44;0.57;;;0.20;;
75914;SDS011;64593;51.050;13.780;2023-03-14T16:25:11;0.82;;;0.32;;
75914;SDS011;64593;51.050;13.780;2023-03-14T16:30:14;0.70;;;0.20;;
75914;SDS011;64593;51.050;13.780;2023-03-14T16:35:16;1.50;;;0.08;;
75914;SDS011;64593;51.050;13.780;2023-03-14T16:40:18;0.75;;;0.20;;
75914;SDS011;64593;51.050;13.780;2023-03-14T16:45:23;0.75;;;0.28;;
75914;SDS011;64593;51.050;13.780;2023-03-14T16:50:50;5.93;;;0.40;;
75914;SDS011;64593;51.050;13.780;2023-03-14T16:56:17;1.38;;;0.40;;
75914;SDS011;64593;51.050;13.780;2023-03-14T17:01:20;2.08;;;0.43;;
75914;SDS011;64593;51.050;13.780;2023-03-14T17:06:23;2.08;;;0.40;;
75914;SDS011;64593;51.050;13.780;2023-03-14T17:11:54;1.92;;;0.32;;
75914;SDS011;64593;51.050;13.780;2023-03-14T17:17:21;0.77;;;0.40;;
75914;SDS011;64593;51.050;13.780;2023-03-14T17:22:47;1.92;;;0.35;;
75914;SDS011;64593;51.050;13.780;2023-03-14T17:28:15;0.68;;;0.30;;
75914;SDS011;64593;51.050;13.780;2023-03-14T17:33:18;0.65;;;0.40;;
75914;SDS011;64593;51.050;13.780;2023-03-14T17:38:20;1.88;;;0.43;;
75914;SDS011;64593;51.050;13.780;2023-03-14T17:48:49;1.45;;;0.40;;
75914;SDS011;64593;51.050;13.780;2023-03-14T17:54:16;1.50;;;0.40;;
75914;SDS011;64593;51.050;13.780;2023-03-14T17:59:18;3.05;;;0.70;;
75914;SDS011;64593;51.050;13.780;2023-03-14T18:04:48;5.72;;;1.00;;
75914;SDS011;64593;51.050;13.780;2023-03-14T18:10:15;3.15;;;1.13;;
75914;SDS011;64593;51.050;13.780;2023-03-14T18:15:42;6.30;;;1.35;;
75914;SDS011;64593;51.050;13.780;2023-03-14T18:21:08;3.83;;;1.02;;
75914;SDS011;64593;51.050;13.780;2023-03-14T18:26:13;8.68;;;1.70;;
75914;SDS011;64593;51.050;13.780;2023-03-14T18:31:17;8.82;;;1.50;;
75914;SDS011;64593;51.050;13.780;2023-03-14T18:36:24;8.90;;;1.30;;
75914;SDS011;64593;51.050;13.780;2023-03-14T18:41:51;3.65;;;1.33;;
75914;SDS011;64593;51.050;13.780;2023-03-14T18:46:55;5.90;;;1.48;;
75914;SDS011;64593;51.050;13.780;2023-03-14T18:52:22;6.25;;;1.17;;
75914;SDS011;64593;51.050;13.780;2023-03-14T18:57:24;2.75;;;1.20;;
75914;SDS011;64593;51.050;13.780;2023-03-14T19:02:51;5.30;;;1.10;;
75914;SDS011;64593;51.050;13.780;2023-03-14T19:08:18;2.78;;;0.70;;
75914;SDS011;64593;51.050;13.780;2023-03-14T19:13:45;3.75;;;1.40;;
75914;SDS011;64593;51.050;13.780;2023-03-14T19:19:12;2.35;;;1.08;;
75914;SDS011;64593;51.050;13.780;2023-03-14T19:24:39;3.50;;;0.93;;
75914;SDS011;64593;51.050;13.780;2023-03-14T19:29:41;3.15;;;0.98;;
75914;SDS011;64593;51.050;13.780;2023-03-14T19:34:43;6.40;;;1.40;;
75914;SDS011;64593;51.050;13.780;2023-03-14T19:40:10;2.35;;;1.00;;
75914;SDS011;64593;51.050;13.780;2023-03-14T19:45:38;13.52;;;1.55;;
75914;SDS011;64593;51.050;13.780;2023-03-14T19:50:40;6.10;;;1.40;;
75914;SDS011;64593;51.050;13.780;2023-03-14T19:55:43;11.45;;;1.48;;
75914;SDS011;64593;51.050;13.780;2023-03-14T20:00:47;5.90;;;1.33;;
75914;SDS011;64593;51.050;13.780;2023-03-14T20:06:18;15.52;;;1.90;;
75914;SDS011;64593;51.050;13.780;2023-03-14T20:11:20;5.38;;;1.20;;
75914;SDS011;64593;51.050;13.780;2023-03-14T20:16:47;8.45;;;1.13;;
75914;SDS011;64593;51.050;13.780;2023-03-14T20:22:54;8.23;;;2.75;;
75914;SDS011;64593;51.050;13.780;2023-03-14T20:28:22;12.15;;;1.80;;
75914;SDS011;64593;51.050;13.780;2023-03-14T20:33:53;4.10;;;1.13;;
75914;SDS011;64593;51.050;13.780;2023-03-14T20:39:31;13.48;;;1.52;;
75914;SDS011;64593;51.050;13.780;2023-03-14T20:44:38;13.32;;;1.98;;
75914;SDS011;64593;51.050;13.780;2023-03-14T20:50:00;7.53;;;1.17;;
75914;SDS011;64593;51.050;13.780;2023-03-14T20:55:26;9.95;;;1.42;;
75914;SDS011;64593;51.050;13.780;2023-03-14T21:00:54;8.52;;;1.45;;
75914;SDS011;64593;51.050;13.780;2023-03-14T21:06:21;13.57;;;1.75;;
75914;SDS011;64593;51.050;13.780;2023-03-14T21:11:24;8.48;;;1.80;;
75914;SDS011;64593;51.050;13.780;2023-03-14T21:16:29;6.93;;;1.10;;
75914;SDS011;64593;51.050;13.780;2023-03-14T21:21:57;6.97;;;1.20;;
75914;SDS011;64593;51.050;13.780;2023-03-14T21:27:25;6.32;;;0.95;;
75914;SDS011;64593;51.050;13.780;2023-03-14T21:32:52;9.13;;;1.60;;
75914;SDS011;64593;51.050;13.780;2023-03-14T21:38:20;5.53;;;1.42;;
75914;SDS011;64593;51.050;13.780;2023-03-14T21:43:49;7.35;;;1.05;;
75914;SDS011;64593;51.050;13.780;2023-03-14T21:49:16;4.07;;;0.93;;
75914;SDS011;64593;51.050;13.780;2023-03-14T21:54:45;6.90;;;1.20;;
75914;SDS011;64593;51.050;13.780;2023-03-14T22:00:14;9.48;;;1.33;;
75914;SDS011;64593;51.050;13.780;2023-03-14T22:05:19;9.85;;;1.33;;
75914;SDS011;64593;51.050;13.780;2023-03-14T22:10:22;15.77;;;1.55;;
75914;SDS011;64593;51.050;13.780;2023-03-14T22:15:23;6.90;;;1.40;;
75914;SDS011;64593;51.050;13.780;2023-03-14T22:20:25;5.65;;;0.90;;
75914;SDS011;64593;51.050;13.780;2023-03-14T22:25:53;7.53;;;1.48;;
75914;SDS011;64593;51.050;13.780;2023-03-14T22:30:55;11.57;;;1.52;;
75914;SDS011;64593;51.050;13.780;2023-03-14T22:36:22;8.77;;;1.73;;
75914;SDS011;64593;51.050;13.780;2023-03-14T22:41:25;3.30;;;0.70;;
75914;SDS011;64593;51.050;13.780;2023-03-14T22:46:52;8.50;;;1.08;;
75914;SDS011;64593;51.050;13.780;2023-03-14T22:52:00;6.35;;;0.80;;
75914;SDS011;64593;51.050;13.780;2023-03-14T22:57:03;6.72;;;1.40;;
